sensor_id;sensor_type;location;lat;lon;timestamp;temperature;humidity
42965;DHT22;28604;51.204;22.552;2022-10-17T00:00:23;14.20;80.50
42965;DHT22;28604;51.204;22.552;2022-10-17T00:03:09;14.20;80.10
42965;DHT22;28604;51.204;22.552;2022-10-17T00:05:46;14.20;80.50
42965;DHT22;28604;51.204;22.552;2022-10-17T00:08:14;14.10;80.70
42965;DHT22;28604;51.204;22.552;2022-10-17T00:10:41;14.10;80.40
42965;DHT22;28604;51.204;22.552;2022-10-17T00:13:07;14.10;80.00
42965;DHT22;28604;51.204;22.552;2022-10-17T00:15:34;14.10;80.80
42965;DHT22;28604;51.204;22.552;2022-10-17T00:18:00;14.10;80.30
42965;DHT22;28604;51.204;22.552;2022-10-17T00:20:26;14.00;80.80
42965;DHT22;28604;51.204;22.552;2022-10-17T00:22:55;14.00;81.10
42965;DHT22;28604;51.204;22.552;2022-10-17T00:25:21;14.00;80.90
42965;DHT22;28604;51.204;22.552;2022-10-17T00:27:47;14.00;80.10
42965;DHT22;28604;51.204;22.552;2022-10-17T00:30:14;14.00;80.30
42965;DHT22;28604;51.204;22.552;2022-10-17T00:32:41;14.00;80.70
42965;DHT22;28604;51.204;22.552;2022-10-17T00:35:07;14.00;80.70
42965;DHT22;28604;51.204;22.552;2022-10-17T00:37:34;13.90;80.70
42965;DHT22;28604;51.204;22.552;2022-10-17T00:40:00;13.90;81.20
42965;DHT22;28604;51.204;22.552;2022-10-17T00:42:26;13.90;80.60
42965;DHT22;28604;51.204;22.552;2022-10-17T00:47:24;13.70;81.70
42965;DHT22;28604;51.204;22.552;2022-10-17T00:49:50;13.70;81.20
42965;DHT22;28604;51.204;22.552;2022-10-17T00:52:22;13.60;81.70
42965;DHT22;28604;51.204;22.552;2022-10-17T00:54:53;13.60;82.00
42965;DHT22;28604;51.204;22.552;2022-10-17T00:57:21;13.70;81.50
42965;DHT22;28604;51.204;22.552;2022-10-17T00:59:51;13.60;80.40
42965;DHT22;28604;51.204;22.552;2022-10-17T01:02:20;13.60;81.00
42965;DHT22;28604;51.204;22.552;2022-10-17T01:04:49;13.60;81.30
42965;DHT22;28604;51.204;22.552;2022-10-17T01:07:16;13.50;82.20
42965;DHT22;28604;51.204;22.552;2022-10-17T01:09:44;13.50;82.00
42965;DHT22;28604;51.204;22.552;2022-10-17T01:31:54;13.40;82.20
42965;DHT22;28604;51.204;22.552;2022-10-17T01:34:30;13.40;82.10
42965;DHT22;28604;51.204;22.552;2022-10-17T01:39:33;13.30;82.00
42965;DHT22;28604;51.204;22.552;2022-10-17T01:42:12;13.30;81.80
42965;DHT22;28604;51.204;22.552;2022-10-17T01:47:16;13.30;82.50
42965;DHT22;28604;51.204;22.552;2022-10-17T01:49:45;13.20;82.30
42965;DHT22;28604;51.204;22.552;2022-10-17T01:52:17;13.20;82.30
42965;DHT22;28604;51.204;22.552;2022-10-17T01:57:29;13.10;81.30
42965;DHT22;28604;51.204;22.552;2022-10-17T01:59:56;13.20;81.40
42965;DHT22;28604;51.204;22.552;2022-10-17T02:02:24;13.10;82.20
42965;DHT22;28604;51.204;22.552;2022-10-17T02:04:51;13.10;81.90
42965;DHT22;28604;51.204;22.552;2022-10-17T02:07:19;13.10;82.50
42965;DHT22;28604;51.204;22.552;2022-10-17T02:09:45;13.00;82.80
42965;DHT22;28604;51.204;22.552;2022-10-17T02:21:14;13.00;83.00
42965;DHT22;28604;51.204;22.552;2022-10-17T02:23:54;12.90;82.70
42965;DHT22;28604;51.204;22.552;2022-10-17T02:26:47;12.90;82.70
42965;DHT22;28604;51.204;22.552;2022-10-17T02:29:20;12.90;83.00
42965;DHT22;28604;51.204;22.552;2022-10-17T02:34:41;12.80;84.90
42965;DHT22;28604;51.204;22.552;2022-10-17T02:37:10;12.80;83.80
42965;DHT22;28604;51.204;22.552;2022-10-17T02:39:39;12.80;84.60
42965;DHT22;28604;51.204;22.552;2022-10-17T02:42:09;12.90;84.30
42965;DHT22;28604;51.204;22.552;2022-10-17T02:44:37;12.90;83.10
42965;DHT22;28604;51.204;22.552;2022-10-17T02:47:22;12.90;83.10
42965;DHT22;28604;51.204;22.552;2022-10-17T02:49:52;12.90;82.60
42965;DHT22;28604;51.204;22.552;2022-10-17T02:55:28;12.80;84.00
42965;DHT22;28604;51.204;22.552;2022-10-17T02:57:59;12.80;84.60
42965;DHT22;28604;51.204;22.552;2022-10-17T03:00:28;12.80;83.90
42965;DHT22;28604;51.204;22.552;2022-10-17T03:02:55;12.80;83.10
42965;DHT22;28604;51.204;22.552;2022-10-17T03:05:27;12.80;83.70
42965;DHT22;28604;51.204;22.552;2022-10-17T03:07:54;12.70;85.00
42965;DHT22;28604;51.204;22.552;2022-10-17T03:10:21;12.70;83.70
42965;DHT22;28604;51.204;22.552;2022-10-17T03:12:47;12.70;84.50
42965;DHT22;28604;51.204;22.552;2022-10-17T03:15:14;12.70;83.30
42965;DHT22;28604;51.204;22.552;2022-10-17T03:17:40;12.70;83.20
42965;DHT22;28604;51.204;22.552;2022-10-17T03:20:08;12.70;82.40
42965;DHT22;28604;51.204;22.552;2022-10-17T03:22:34;12.60;82.50
42965;DHT22;28604;51.204;22.552;2022-10-17T03:25:02;12.60;83.50
42965;DHT22;28604;51.204;22.552;2022-10-17T03:27:28;12.60;83.70
42965;DHT22;28604;51.204;22.552;2022-10-17T03:29:55;12.60;84.50
42965;DHT22;28604;51.204;22.552;2022-10-17T03:32:21;12.50;85.00
42965;DHT22;28604;51.204;22.552;2022-10-17T03:34:47;12.40;85.20
42965;DHT22;28604;51.204;22.552;2022-10-17T03:37:13;12.40;85.40
42965;DHT22;28604;51.204;22.552;2022-10-17T03:39:40;12.50;84.90
42965;DHT22;28604;51.204;22.552;2022-10-17T03:42:07;12.40;85.50
42965;DHT22;28604;51.204;22.552;2022-10-17T03:44:33;12.40;85.10
42965;DHT22;28604;51.204;22.552;2022-10-17T03:46:59;12.40;85.60
42965;DHT22;28604;51.204;22.552;2022-10-17T03:49:25;12.30;84.20
42965;DHT22;28604;51.204;22.552;2022-10-17T03:51:51;12.40;84.70
42965;DHT22;28604;51.204;22.552;2022-10-17T03:54:18;12.40;85.70
42965;DHT22;28604;51.204;22.552;2022-10-17T03:56:44;12.40;84.40
42965;DHT22;28604;51.204;22.552;2022-10-17T03:59:14;12.40;84.80
42965;DHT22;28604;51.204;22.552;2022-10-17T04:01:43;12.40;84.90
42965;DHT22;28604;51.204;22.552;2022-10-17T04:04:09;12.40;85.00
42965;DHT22;28604;51.204;22.552;2022-10-17T04:06:37;12.40;85.20
42965;DHT22;28604;51.204;22.552;2022-10-17T04:09:04;12.30;85.50
42965;DHT22;28604;51.204;22.552;2022-10-17T04:11:57;12.30;85.50
42965;DHT22;28604;51.204;22.552;2022-10-17T04:14:23;12.30;85.90
42965;DHT22;28604;51.204;22.552;2022-10-17T04:16:50;12.30;85.40
42965;DHT22;28604;51.204;22.552;2022-10-17T04:19:19;12.30;85.40
42965;DHT22;28604;51.204;22.552;2022-10-17T04:21:46;12.30;86.40
42965;DHT22;28604;51.204;22.552;2022-10-17T04:24:13;12.30;85.90
42965;DHT22;28604;51.204;22.552;2022-10-17T04:26:54;12.30;85.90
42965;DHT22;28604;51.204;22.552;2022-10-17T04:29:24;12.20;85.70
42965;DHT22;28604;51.204;22.552;2022-10-17T04:31:53;12.20;85.80
42965;DHT22;28604;51.204;22.552;2022-10-17T04:34:37;12.20;85.80
42965;DHT22;28604;51.204;22.552;2022-10-17T04:37:03;12.20;86.30
42965;DHT22;28604;51.204;22.552;2022-10-17T04:39:29;12.10;85.20
42965;DHT22;28604;51.204;22.552;2022-10-17T04:41:57;12.10;85.90
42965;DHT22;28604;51.204;22.552;2022-10-17T04:44:22;12.10;85.60
42965;DHT22;28604;51.204;22.552;2022-10-17T04:46:51;12.10;85.80
42965;DHT22;28604;51.204;22.552;2022-10-17T04:49:17;12.10;85.70
42965;DHT22;28604;51.204;22.552;2022-10-17T04:51:46;12.10;86.00
42965;DHT22;28604;51.204;22.552;2022-10-17T04:54:30;12.00;85.30
42965;DHT22;28604;51.204;22.552;2022-10-17T04:57:06;12.00;85.20
42965;DHT22;28604;51.204;22.552;2022-10-17T04:59:32;12.00;85.60
42965;DHT22;28604;51.204;22.552;2022-10-17T05:02:18;12.00;85.70
42965;DHT22;28604;51.204;22.552;2022-10-17T05:04:45;12.00;85.60
42965;DHT22;28604;51.204;22.552;2022-10-17T05:07:13;12.10;86.40
42965;DHT22;28604;51.204;22.552;2022-10-17T05:10:05;12.10;87.00
42965;DHT22;28604;51.204;22.552;2022-10-17T05:12:32;12.00;85.50
42965;DHT22;28604;51.204;22.552;2022-10-17T05:14:58;12.00;85.90
42965;DHT22;28604;51.204;22.552;2022-10-17T05:17:25;12.00;85.40
42965;DHT22;28604;51.204;22.552;2022-10-17T05:19:51;12.10;86.00
42965;DHT22;28604;51.204;22.552;2022-10-17T05:22:17;12.10;86.40
42965;DHT22;28604;51.204;22.552;2022-10-17T05:24:43;12.10;86.50
42965;DHT22;28604;51.204;22.552;2022-10-17T05:27:10;12.10;86.60
42965;DHT22;28604;51.204;22.552;2022-10-17T05:29:36;12.20;86.50
42965;DHT22;28604;51.204;22.552;2022-10-17T05:32:09;12.20;86.90
42965;DHT22;28604;51.204;22.552;2022-10-17T05:34:37;12.30;86.20
42965;DHT22;28604;51.204;22.552;2022-10-17T05:37:03;12.30;86.70
42965;DHT22;28604;51.204;22.552;2022-10-17T05:39:30;12.40;86.80
42965;DHT22;28604;51.204;22.552;2022-10-17T05:41:57;12.60;86.30
42965;DHT22;28604;51.204;22.552;2022-10-17T05:44:23;12.70;85.50
42965;DHT22;28604;51.204;22.552;2022-10-17T05:46:53;12.80;85.30
42965;DHT22;28604;51.204;22.552;2022-10-17T05:49:20;13.00;85.80
42965;DHT22;28604;51.204;22.552;2022-10-17T05:51:47;13.10;85.30
42965;DHT22;28604;51.204;22.552;2022-10-17T05:54:13;13.30;85.30
42965;DHT22;28604;51.204;22.552;2022-10-17T05:56:39;13.40;84.90
42965;DHT22;28604;51.204;22.552;2022-10-17T05:59:06;13.50;84.60
42965;DHT22;28604;51.204;22.552;2022-10-17T06:01:51;13.60;84.40
42965;DHT22;28604;51.204;22.552;2022-10-17T06:04:17;13.80;84.20
42965;DHT22;28604;51.204;22.552;2022-10-17T06:06:43;13.90;83.70
42965;DHT22;28604;51.204;22.552;2022-10-17T06:09:09;14.00;83.40
42965;DHT22;28604;51.204;22.552;2022-10-17T06:11:39;14.10;82.80
42965;DHT22;28604;51.204;22.552;2022-10-17T06:14:06;14.40;82.40
42965;DHT22;28604;51.204;22.552;2022-10-17T06:16:32;14.50;82.00
42965;DHT22;28604;51.204;22.552;2022-10-17T06:18:58;14.60;81.60
42965;DHT22;28604;51.204;22.552;2022-10-17T06:21:25;14.70;81.50
42965;DHT22;28604;51.204;22.552;2022-10-17T06:23:58;14.90;80.80
42965;DHT22;28604;51.204;22.552;2022-10-17T06:26:28;15.10;80.60
42965;DHT22;28604;51.204;22.552;2022-10-17T06:28:55;15.30;80.20
42965;DHT22;28604;51.204;22.552;2022-10-17T06:31:21;15.50;79.20
42965;DHT22;28604;51.204;22.552;2022-10-17T06:33:48;15.70;79.10
42965;DHT22;28604;51.204;22.552;2022-10-17T06:36:14;16.00;78.90
42965;DHT22;28604;51.204;22.552;2022-10-17T06:38:40;16.10;78.40
42965;DHT22;28604;51.204;22.552;2022-10-17T06:41:15;16.30;77.60
42965;DHT22;28604;51.204;22.552;2022-10-17T06:43:43;16.50;77.40
42965;DHT22;28604;51.204;22.552;2022-10-17T06:46:31;16.70;76.50
42965;DHT22;28604;51.204;22.552;2022-10-17T06:49:03;17.00;75.90
42965;DHT22;28604;51.204;22.552;2022-10-17T06:51:50;17.20;75.70
42965;DHT22;28604;51.204;22.552;2022-10-17T06:54:21;17.40;75.30
42965;DHT22;28604;51.204;22.552;2022-10-17T06:57:01;17.60;74.80
42965;DHT22;28604;51.204;22.552;2022-10-17T06:59:51;17.80;74.70
42965;DHT22;28604;51.204;22.552;2022-10-17T07:02:22;18.10;75.20
42965;DHT22;28604;51.204;22.552;2022-10-17T07:04:49;18.40;74.00
42965;DHT22;28604;51.204;22.552;2022-10-17T07:07:15;18.50;72.10
42965;DHT22;28604;51.204;22.552;2022-10-17T07:09:41;18.60;72.40
42965;DHT22;28604;51.204;22.552;2022-10-17T07:12:08;18.80;72.50
42965;DHT22;28604;51.204;22.552;2022-10-17T07:14:40;19.00;71.60
42965;DHT22;28604;51.204;22.552;2022-10-17T07:17:07;19.20;70.20
42965;DHT22;28604;51.204;22.552;2022-10-17T07:19:33;19.50;70.10
42965;DHT22;28604;51.204;22.552;2022-10-17T07:21:59;19.80;69.70
42965;DHT22;28604;51.204;22.552;2022-10-17T07:24:26;20.00;68.70
42965;DHT22;28604;51.204;22.552;2022-10-17T07:27:02;20.30;68.40
42965;DHT22;28604;51.204;22.552;2022-10-17T07:29:28;20.90;68.30
42965;DHT22;28604;51.204;22.552;2022-10-17T07:32:05;21.00;67.20
42965;DHT22;28604;51.204;22.552;2022-10-17T07:34:34;21.40;67.50
42965;DHT22;28604;51.204;22.552;2022-10-17T07:37:00;21.60;66.00
42965;DHT22;28604;51.204;22.552;2022-10-17T07:39:27;21.80;65.30
42965;DHT22;28604;51.204;22.552;2022-10-17T07:41:54;22.10;64.90
42965;DHT22;28604;51.204;22.552;2022-10-17T07:44:21;22.30;63.90
42965;DHT22;28604;51.204;22.552;2022-10-17T07:46:50;22.50;64.30
42965;DHT22;28604;51.204;22.552;2022-10-17T07:49:17;22.80;63.90
42965;DHT22;28604;51.204;22.552;2022-10-17T07:51:43;22.70;62.40
42965;DHT22;28604;51.204;22.552;2022-10-17T07:54:09;23.00;63.20
42965;DHT22;28604;51.204;22.552;2022-10-17T07:56:35;23.10;63.10
42965;DHT22;28604;51.204;22.552;2022-10-17T07:59:01;23.00;62.00
42965;DHT22;28604;51.204;22.552;2022-10-17T08:01:27;23.20;61.60
42965;DHT22;28604;51.204;22.552;2022-10-17T08:03:52;23.40;62.40
42965;DHT22;28604;51.204;22.552;2022-10-17T08:06:18;23.60;60.80
42965;DHT22;28604;51.204;22.552;2022-10-17T08:08:44;23.60;60.50
42965;DHT22;28604;51.204;22.552;2022-10-17T08:11:13;23.80;60.60
42965;DHT22;28604;51.204;22.552;2022-10-17T08:13:41;24.00;60.60
42965;DHT22;28604;51.204;22.552;2022-10-17T08:16:09;24.10;59.70
42965;DHT22;28604;51.204;22.552;2022-10-17T08:18:36;24.30;60.20
42965;DHT22;28604;51.204;22.552;2022-10-17T08:21:03;24.40;59.30
42965;DHT22;28604;51.204;22.552;2022-10-17T08:23:33;24.30;59.00
42965;DHT22;28604;51.204;22.552;2022-10-17T08:26:00;24.20;59.50
42965;DHT22;28604;51.204;22.552;2022-10-17T08:28:27;24.30;59.40
42965;DHT22;28604;51.204;22.552;2022-10-17T08:31:00;24.40;60.10
42965;DHT22;28604;51.204;22.552;2022-10-17T08:33:26;24.40;59.00
42965;DHT22;28604;51.204;22.552;2022-10-17T08:35:52;24.70;59.30
42965;DHT22;28604;51.204;22.552;2022-10-17T08:38:18;24.90;59.00
42965;DHT22;28604;51.204;22.552;2022-10-17T08:40:47;25.10;58.50
42965;DHT22;28604;51.204;22.552;2022-10-17T08:43:42;25.20;58.00
42965;DHT22;28604;51.204;22.552;2022-10-17T08:46:12;25.30;58.80
42965;DHT22;28604;51.204;22.552;2022-10-17T08:48:41;25.70;58.10
42965;DHT22;28604;51.204;22.552;2022-10-17T08:51:10;25.50;57.20
42965;DHT22;28604;51.204;22.552;2022-10-17T08:56:45;25.50;56.50
42965;DHT22;28604;51.204;22.552;2022-10-17T08:59:24;25.60;57.40
42965;DHT22;28604;51.204;22.552;2022-10-17T09:02:00;25.40;56.70
42965;DHT22;28604;51.204;22.552;2022-10-17T09:18:31;26.50;56.20
42965;DHT22;28604;51.204;22.552;2022-10-17T09:23:55;26.40;55.90
42965;DHT22;28604;51.204;22.552;2022-10-17T09:26:23;26.80;55.60
42965;DHT22;28604;51.204;22.552;2022-10-17T09:28:52;26.90;54.70
42965;DHT22;28604;51.204;22.552;2022-10-17T09:31:39;27.10;54.90
42965;DHT22;28604;51.204;22.552;2022-10-17T09:34:08;27.00;55.60
42965;DHT22;28604;51.204;22.552;2022-10-17T09:36:37;27.10;55.80
42965;DHT22;28604;51.204;22.552;2022-10-17T09:39:30;27.10;54.50
42965;DHT22;28604;51.204;22.552;2022-10-17T09:42:00;27.00;54.70
42965;DHT22;28604;51.204;22.552;2022-10-17T09:44:41;27.10;55.50
42965;DHT22;28604;51.204;22.552;2022-10-17T09:47:37;27.10;55.80
42965;DHT22;28604;51.204;22.552;2022-10-17T09:50:35;27.20;54.50
42965;DHT22;28604;51.204;22.552;2022-10-17T09:53:09;27.20;55.20
42965;DHT22;28604;51.204;22.552;2022-10-17T09:55:42;27.40;53.90
42965;DHT22;28604;51.204;22.552;2022-10-17T09:58:10;27.70;54.50
42965;DHT22;28604;51.204;22.552;2022-10-17T10:00:39;27.70;54.50
42965;DHT22;28604;51.204;22.552;2022-10-17T10:03:09;27.70;54.00
42965;DHT22;28604;51.204;22.552;2022-10-17T10:05:36;27.70;53.50
42965;DHT22;28604;51.204;22.552;2022-10-17T10:08:16;27.50;53.70
42965;DHT22;28604;51.204;22.552;2022-10-17T10:10:43;27.50;54.20
42965;DHT22;28604;51.204;22.552;2022-10-17T10:15:45;27.70;54.20
42965;DHT22;28604;51.204;22.552;2022-10-17T10:23:34;27.70;53.60
42965;DHT22;28604;51.204;22.552;2022-10-17T10:28:56;27.70;53.90
42965;DHT22;28604;51.204;22.552;2022-10-17T10:31:33;27.80;53.90
42965;DHT22;28604;51.204;22.552;2022-10-17T10:34:14;27.90;54.10
42965;DHT22;28604;51.204;22.552;2022-10-17T10:37:02;27.80;53.00
42965;DHT22;28604;51.204;22.552;2022-10-17T10:39:37;27.90;53.60
42965;DHT22;28604;51.204;22.552;2022-10-17T10:42:16;27.80;53.40
42965;DHT22;28604;51.204;22.552;2022-10-17T10:44:43;27.80;53.50
42965;DHT22;28604;51.204;22.552;2022-10-17T10:47:17;27.70;53.80
42965;DHT22;28604;51.204;22.552;2022-10-17T10:49:43;27.80;55.80
42965;DHT22;28604;51.204;22.552;2022-10-17T10:52:43;27.60;53.50
42965;DHT22;28604;51.204;22.552;2022-10-17T10:55:22;27.70;54.10
42965;DHT22;28604;51.204;22.552;2022-10-17T10:57:51;27.70;53.70
42965;DHT22;28604;51.204;22.552;2022-10-17T11:00:21;27.60;53.70
42965;DHT22;28604;51.204;22.552;2022-10-17T11:05:39;27.60;53.70
42965;DHT22;28604;51.204;22.552;2022-10-17T11:13:29;27.30;53.80
42965;DHT22;28604;51.204;22.552;2022-10-17T11:16:16;27.30;54.20
42965;DHT22;28604;51.204;22.552;2022-10-17T11:18:47;27.40;54.60
42965;DHT22;28604;51.204;22.552;2022-10-17T11:21:19;27.30;54.00
42965;DHT22;28604;51.204;22.552;2022-10-17T11:24:11;27.40;54.30
42965;DHT22;28604;51.204;22.552;2022-10-17T11:26:45;27.10;54.50
42965;DHT22;28604;51.204;22.552;2022-10-17T11:29:13;27.20;54.90
42965;DHT22;28604;51.204;22.552;2022-10-17T11:31:47;27.20;54.60
42965;DHT22;28604;51.204;22.552;2022-10-17T11:34:23;27.20;54.70
42965;DHT22;28604;51.204;22.552;2022-10-17T11:37:35;27.00;54.50
42965;DHT22;28604;51.204;22.552;2022-10-17T11:39:53;27.00;54.70
42965;DHT22;28604;51.204;22.552;2022-10-17T11:42:30;26.80;54.80
42965;DHT22;28604;51.204;22.552;2022-10-17T11:45:17;26.80;55.30
42965;DHT22;28604;51.204;22.552;2022-10-17T11:47:54;26.70;55.80
42965;DHT22;28604;51.204;22.552;2022-10-17T11:50:34;26.50;55.90
42965;DHT22;28604;51.204;22.552;2022-10-17T11:53:19;26.10;56.30
42965;DHT22;28604;51.204;22.552;2022-10-17T11:55:47;26.00;56.60
42965;DHT22;28604;51.204;22.552;2022-10-17T12:01:24;25.80;57.20
42965;DHT22;28604;51.204;22.552;2022-10-17T12:04:06;25.50;57.00
42965;DHT22;28604;51.204;22.552;2022-10-17T12:09:24;25.70;57.70
42965;DHT22;28604;51.204;22.552;2022-10-17T12:11:59;25.80;57.90
42965;DHT22;28604;51.204;22.552;2022-10-17T12:22:47;26.20;57.10
42965;DHT22;28604;51.204;22.552;2022-10-17T12:26:04;26.30;56.80
42965;DHT22;28604;51.204;22.552;2022-10-17T12:31:04;26.50;57.00
42965;DHT22;28604;51.204;22.552;2022-10-17T12:47:25;26.30;57.50
42965;DHT22;28604;51.204;22.552;2022-10-17T12:49:45;26.30;57.70
42965;DHT22;28604;51.204;22.552;2022-10-17T12:54:55;26.50;56.70
42965;DHT22;28604;51.204;22.552;2022-10-17T12:59:48;26.70;56.50
42965;DHT22;28604;51.204;22.552;2022-10-17T13:02:19;26.70;56.40
42965;DHT22;28604;51.204;22.552;2022-10-17T13:04:47;26.60;56.30
42965;DHT22;28604;51.204;22.552;2022-10-17T13:07:19;26.40;56.50
42965;DHT22;28604;51.204;22.552;2022-10-17T13:09:47;26.50;56.60
42965;DHT22;28604;51.204;22.552;2022-10-17T13:12:20;26.50;56.10
42965;DHT22;28604;51.204;22.552;2022-10-17T13:14:50;26.50;56.50
42965;DHT22;28604;51.204;22.552;2022-10-17T13:17:27;26.50;56.70
42965;DHT22;28604;51.204;22.552;2022-10-17T13:19:56;26.60;56.80
42965;DHT22;28604;51.204;22.552;2022-10-17T13:22:27;26.70;56.70
42965;DHT22;28604;51.204;22.552;2022-10-17T13:25:11;26.60;57.00
42965;DHT22;28604;51.204;22.552;2022-10-17T13:27:38;26.70;56.90
42965;DHT22;28604;51.204;22.552;2022-10-17T13:32:46;26.50;56.30
42965;DHT22;28604;51.204;22.552;2022-10-17T13:35:14;26.50;56.50
42965;DHT22;28604;51.204;22.552;2022-10-17T13:37:44;26.50;56.90
42965;DHT22;28604;51.204;22.552;2022-10-17T13:40:23;26.60;56.80
42965;DHT22;28604;51.204;22.552;2022-10-17T13:42:51;26.60;57.20
42965;DHT22;28604;51.204;22.552;2022-10-17T13:45:33;26.50;56.10
42965;DHT22;28604;51.204;22.552;2022-10-17T13:48:03;26.60;56.50
42965;DHT22;28604;51.204;22.552;2022-10-17T13:50:36;26.60;56.50
42965;DHT22;28604;51.204;22.552;2022-10-17T13:56:04;26.40;56.80
42965;DHT22;28604;51.204;22.552;2022-10-17T13:58:52;26.40;57.20
42965;DHT22;28604;51.204;22.552;2022-10-17T14:01:19;26.20;57.20
42965;DHT22;28604;51.204;22.552;2022-10-17T14:03:46;26.20;57.50
42965;DHT22;28604;51.204;22.552;2022-10-17T14:06:27;26.20;57.60
42965;DHT22;28604;51.204;22.552;2022-10-17T14:09:03;26.30;57.70
42965;DHT22;28604;51.204;22.552;2022-10-17T14:11:38;26.20;57.80
42965;DHT22;28604;51.204;22.552;2022-10-17T14:14:07;26.30;57.80
42965;DHT22;28604;51.204;22.552;2022-10-17T14:16:41;26.20;57.70
42965;DHT22;28604;51.204;22.552;2022-10-17T14:21:53;26.20;58.20
42965;DHT22;28604;51.204;22.552;2022-10-17T14:24:27;26.00;58.50
42965;DHT22;28604;51.204;22.552;2022-10-17T14:26:58;26.00;58.60
42965;DHT22;28604;51.204;22.552;2022-10-17T14:29:29;25.80;58.80
42965;DHT22;28604;51.204;22.552;2022-10-17T14:32:04;25.90;59.10
42965;DHT22;28604;51.204;22.552;2022-10-17T14:34:35;25.80;59.10
42965;DHT22;28604;51.204;22.552;2022-10-17T14:37:08;25.70;59.40
42965;DHT22;28604;51.204;22.552;2022-10-17T14:39:34;25.60;59.40
42965;DHT22;28604;51.204;22.552;2022-10-17T14:42:01;25.60;59.80
42965;DHT22;28604;51.204;22.552;2022-10-17T14:44:31;25.40;59.80
42965;DHT22;28604;51.204;22.552;2022-10-17T14:47:03;25.30;60.10
42965;DHT22;28604;51.204;22.552;2022-10-17T14:49:36;25.30;60.20
42965;DHT22;28604;51.204;22.552;2022-10-17T14:52:33;25.30;60.30
42965;DHT22;28604;51.204;22.552;2022-10-17T14:55:12;25.10;60.50
42965;DHT22;28604;51.204;22.552;2022-10-17T14:57:42;24.90;60.90
42965;DHT22;28604;51.204;22.552;2022-10-17T15:00:16;24.80;61.50
42965;DHT22;28604;51.204;22.552;2022-10-17T15:02:43;24.60;61.80
42965;DHT22;28604;51.204;22.552;2022-10-17T15:05:09;24.50;62.00
42965;DHT22;28604;51.204;22.552;2022-10-17T15:07:35;24.40;62.00
42965;DHT22;28604;51.204;22.552;2022-10-17T15:10:01;24.30;62.30
42965;DHT22;28604;51.204;22.552;2022-10-17T15:12:27;24.20;62.40
42965;DHT22;28604;51.204;22.552;2022-10-17T15:14:53;24.10;62.50
42965;DHT22;28604;51.204;22.552;2022-10-17T15:17:25;24.10;62.90
42965;DHT22;28604;51.204;22.552;2022-10-17T15:19:52;24.00;63.10
42965;DHT22;28604;51.204;22.552;2022-10-17T15:22:18;23.80;63.20
42965;DHT22;28604;51.204;22.552;2022-10-17T15:24:45;23.70;63.60
42965;DHT22;28604;51.204;22.552;2022-10-17T15:27:18;23.50;63.50
42965;DHT22;28604;51.204;22.552;2022-10-17T15:29:44;23.40;64.10
42965;DHT22;28604;51.204;22.552;2022-10-17T15:32:11;23.20;64.70
42965;DHT22;28604;51.204;22.552;2022-10-17T15:34:36;23.00;64.90
42965;DHT22;28604;51.204;22.552;2022-10-17T15:37:04;23.00;65.60
42965;DHT22;28604;51.204;22.552;2022-10-17T15:39:30;22.90;65.00
42965;DHT22;28604;51.204;22.552;2022-10-17T15:41:57;22.80;65.20
42965;DHT22;28604;51.204;22.552;2022-10-17T15:44:23;22.70;65.60
42965;DHT22;28604;51.204;22.552;2022-10-17T15:46:49;22.50;66.20
42965;DHT22;28604;51.204;22.552;2022-10-17T15:49:17;22.40;66.80
42965;DHT22;28604;51.204;22.552;2022-10-17T15:51:44;22.30;67.00
42965;DHT22;28604;51.204;22.552;2022-10-17T15:54:10;22.20;67.50
42965;DHT22;28604;51.204;22.552;2022-10-17T15:56:38;22.10;67.40
42965;DHT22;28604;51.204;22.552;2022-10-17T15:59:17;22.00;68.00
42965;DHT22;28604;51.204;22.552;2022-10-17T16:01:44;21.90;67.50
42965;DHT22;28604;51.204;22.552;2022-10-17T16:04:11;21.70;68.30
42965;DHT22;28604;51.204;22.552;2022-10-17T16:06:40;21.80;68.40
42965;DHT22;28604;51.204;22.552;2022-10-17T16:09:06;21.70;68.40
42965;DHT22;28604;51.204;22.552;2022-10-17T16:11:38;21.70;68.40
42965;DHT22;28604;51.204;22.552;2022-10-17T16:14:12;21.50;68.60
42965;DHT22;28604;51.204;22.552;2022-10-17T16:16:39;21.50;69.40
42965;DHT22;28604;51.204;22.552;2022-10-17T16:19:05;21.30;68.30
42965;DHT22;28604;51.204;22.552;2022-10-17T16:21:34;21.30;69.10
42965;DHT22;28604;51.204;22.552;2022-10-17T16:24:02;21.20;68.80
42965;DHT22;28604;51.204;22.552;2022-10-17T16:26:28;21.20;69.20
42965;DHT22;28604;51.204;22.552;2022-10-17T16:28:54;21.10;69.50
42965;DHT22;28604;51.204;22.552;2022-10-17T16:31:30;21.00;68.90
42965;DHT22;28604;51.204;22.552;2022-10-17T16:33:59;21.00;69.90
42965;DHT22;28604;51.204;22.552;2022-10-17T16:36:25;21.00;69.90
42965;DHT22;28604;51.204;22.552;2022-10-17T16:38:51;20.80;70.10
42965;DHT22;28604;51.204;22.552;2022-10-17T16:41:27;20.70;70.10
42965;DHT22;28604;51.204;22.552;2022-10-17T16:43:55;20.60;70.60
42965;DHT22;28604;51.204;22.552;2022-10-17T16:46:22;20.50;71.30
42965;DHT22;28604;51.204;22.552;2022-10-17T16:48:47;20.50;70.80
42965;DHT22;28604;51.204;22.552;2022-10-17T16:51:15;20.40;71.20
42965;DHT22;28604;51.204;22.552;2022-10-17T16:53:43;20.40;71.50
42965;DHT22;28604;51.204;22.552;2022-10-17T16:56:15;20.30;71.10
42965;DHT22;28604;51.204;22.552;2022-10-17T16:58:42;20.30;70.90
42965;DHT22;28604;51.204;22.552;2022-10-17T17:01:14;20.20;71.70
42965;DHT22;28604;51.204;22.552;2022-10-17T17:03:42;20.10;71.70
42965;DHT22;28604;51.204;22.552;2022-10-17T17:06:12;20.10;72.40
42965;DHT22;28604;51.204;22.552;2022-10-17T17:08:38;19.90;72.10
42965;DHT22;28604;51.204;22.552;2022-10-17T17:11:09;19.90;72.00
42965;DHT22;28604;51.204;22.552;2022-10-17T17:13:35;19.80;71.90
42965;DHT22;28604;51.204;22.552;2022-10-17T17:18:28;19.80;72.30
42965;DHT22;28604;51.204;22.552;2022-10-17T17:21:02;19.70;71.30
42965;DHT22;28604;51.204;22.552;2022-10-17T17:23:29;19.80;70.60
42965;DHT22;28604;51.204;22.552;2022-10-17T17:25:57;19.70;70.20
42965;DHT22;28604;51.204;22.552;2022-10-17T17:28:23;19.60;69.80
42965;DHT22;28604;51.204;22.552;2022-10-17T17:30:51;19.50;69.80
42965;DHT22;28604;51.204;22.552;2022-10-17T17:33:16;19.50;70.00
42965;DHT22;28604;51.204;22.552;2022-10-17T17:35:42;19.40;71.80
42965;DHT22;28604;51.204;22.552;2022-10-17T17:38:08;19.40;72.40
42965;DHT22;28604;51.204;22.552;2022-10-17T17:40:34;19.30;71.90
42965;DHT22;28604;51.204;22.552;2022-10-17T17:43:01;19.20;71.90
42965;DHT22;28604;51.204;22.552;2022-10-17T17:45:27;19.20;72.70